»·PEaware :: WAT169 KELP-KLAX

WAT169 :: KELP-KLAX

FLIGHT INFORMATION

Flight Status: Arrived
Operator:
Walker Air Transport
More flights by this operator :: More flights under this callsign
Pilot: Marty P. (27464)
Aircraft: BOEING 737-800
(B738)
More flights by this aircraft type
Origin: KELP El Paso Intl
United States
Destination: KLAX Los Angeles Intl
United States
More flights between these airports :: More routes between these airports
Route: +ATKNN5 FLOGS SSO ESTWD HLYWD1
File this flight plan on PilotEdge
Remarks:
Altitude:
(Current/Filed)
38,000ft
Speed:
(Current/Filed)
480kts
Departed: 17-Oct-20 11:24 AM
Arrived: 17-Oct-20 12:57 PM
Distance/Time
Traveled:
619nm/1:33
Distance/Time
To Go:
Arrived

Flight Plot

Page will automatically refresh every two minutes.

Flight plan parsing failed; only flown route is shown


Map Options




Map Legend


Flown Route
Filed Route
Departure Airport
Arrival Airport
Navaid (VOR, NDB)
Fix

Horizontal Profiles

Position Reports

Time Latitude Longitude Heading Altitude Ground
Speed
17-Oct-20 11:10 31.799527 -106.394104 349 3925ft 0kts
17-Oct-20 11:11 31.799527 -106.394104 349 3925ft 0kts
17-Oct-20 11:12 31.799408 -106.393694 305 3926ft 1kts
17-Oct-20 11:13 31.799296 -106.393460 76 3926ft 6kts
17-Oct-20 11:14 31.799809 -106.391136 75 3928ft 3kts
17-Oct-20 11:15 31.799833 -106.391030 75 3927ft 0kts
17-Oct-20 11:16 31.799837 -106.391009 76 3927ft 1kts
17-Oct-20 11:17 31.799909 -106.386282 89 3935ft 21kts
17-Oct-20 11:18 31.799927 -106.379104 93 3944ft 21kts
17-Oct-20 11:19 31.799621 -106.372760 93 3952ft 20kts
17-Oct-20 11:20 31.799298 -106.366483 94 3960ft 23kts
17-Oct-20 11:21 31.799448 -106.360395 7 3950ft 7kts
17-Oct-20 11:22 31.800707 -106.361361 273 3952ft 18kts
17-Oct-20 11:23 31.802834 -106.399015 270 4504ft 169kts
17-Oct-20 11:24 31.780226 -106.459875 238 5668ft 251kts
17-Oct-20 11:25 31.779765 -106.538419 299 9557ft 259kts
17-Oct-20 11:26 31.814373 -106.621093 284 11379ft 332kts
17-Oct-20 11:27 31.835519 -106.737164 282 13641ft 375kts
17-Oct-20 11:28 31.857780 -106.859327 282 16375ft 390kts
17-Oct-20 11:29 31.881250 -106.988908 282 18750ft 405kts
17-Oct-20 11:30 31.904910 -107.119721 282 21028ft 415kts
17-Oct-20 11:31 31.929231 -107.254820 282 22892ft 428kts
17-Oct-20 11:32 31.954027 -107.393388 282 24669ft 437kts
17-Oct-20 11:33 31.979047 -107.534055 282 26345ft 444kts
17-Oct-20 11:34 32.004366 -107.677334 281 27844ft 449kts
17-Oct-20 11:35 32.029421 -107.820390 281 29726ft 443kts
17-Oct-20 11:36 32.053962 -107.961471 281 31528ft 435kts
17-Oct-20 11:37 32.077990 -108.100511 281 33060ft 431kts
17-Oct-20 11:38 32.101537 -108.237660 281 34472ft 426kts
17-Oct-20 11:39 32.124770 -108.373753 280 35767ft 421kts
17-Oct-20 11:40 32.147662 -108.508897 280 36848ft 419kts
17-Oct-20 11:41 32.170266 -108.643242 280 37716ft 419kts
17-Oct-20 11:42 32.192779 -108.778150 280 38236ft 425kts
17-Oct-20 11:43 32.216013 -108.917702 280 38213ft 440kts
17-Oct-20 11:44 32.239779 -109.060774 280 38171ft 449kts
17-Oct-20 11:45 32.263696 -109.206061 282 38139ft 454kts
17-Oct-20 11:46 32.303538 -109.347958 289 38137ft 457kts
17-Oct-20 11:47 32.351518 -109.487384 291 38137ft 459kts
17-Oct-20 11:48 32.401012 -109.626308 291 38137ft 460kts
17-Oct-20 11:49 32.451034 -109.765985 291 38136ft 461kts
17-Oct-20 11:50 32.501072 -109.905863 291 38137ft 462kts
17-Oct-20 11:51 32.550981 -110.045785 291 38136ft 462kts
17-Oct-20 11:52 32.600848 -110.186115 291 38135ft 463kts
17-Oct-20 11:53 32.650751 -110.327102 291 38115ft 463kts
17-Oct-20 11:54 32.700284 -110.467617 291 38110ft 462kts
17-Oct-20 11:55 32.749606 -110.608111 291 38105ft 462kts
17-Oct-20 11:56 32.798958 -110.749420 290 38078ft 463kts
17-Oct-20 11:57 32.848186 -110.890927 290 38048ft 464kts
17-Oct-20 11:59 32.897271 -111.032535 290 38045ft 464kts
17-Oct-20 12:00 32.946276 -111.174475 290 38045ft 464kts
17-Oct-20 12:01 32.994976 -111.316124 290 38037ft 464kts
17-Oct-20 12:02 33.043720 -111.458606 290 38024ft 464kts
17-Oct-20 12:03 33.092247 -111.601076 290 38008ft 464kts
17-Oct-20 12:04 33.140560 -111.743769 289 38013ft 463kts
17-Oct-20 12:05 33.188613 -111.886252 289 38026ft 463kts
17-Oct-20 12:06 33.236523 -112.028887 289 38016ft 463kts
17-Oct-20 12:07 33.284338 -112.171904 289 38012ft 463kts
17-Oct-20 12:08 33.331963 -112.314951 289 38017ft 463kts
17-Oct-20 12:09 33.379322 -112.457844 289 38018ft 463kts
17-Oct-20 12:10 33.426589 -112.601109 289 38018ft 463kts
17-Oct-20 12:11 33.473737 -112.744806 289 38017ft 464kts
17-Oct-20 12:12 33.520727 -112.888688 289 38018ft 465kts
17-Oct-20 12:13 33.567658 -113.032965 289 38018ft 465kts
17-Oct-20 12:14 33.614566 -113.177820 289 38018ft 466kts
17-Oct-20 12:15 33.661151 -113.322342 289 38018ft 466kts
17-Oct-20 12:16 33.707840 -113.467868 289 38018ft 467kts
17-Oct-20 12:16 33.746586 -113.589161 289 38016ft 467kts
17-Oct-20 12:18 33.800417 -113.758628 288 38011ft 467kts
17-Oct-20 12:18 33.838996 -113.880665 288 38013ft 468kts
17-Oct-20 12:20 33.892717 -114.051321 288 38020ft 468kts
17-Oct-20 12:20 33.917152 -114.177609 279 37997ft 465kts
17-Oct-20 12:21 33.942406 -114.330190 279 37980ft 466kts
17-Oct-20 12:22 33.968051 -114.482900 280 37981ft 466kts
17-Oct-20 12:23 33.993776 -114.636200 279 37981ft 467kts
17-Oct-20 12:24 34.019164 -114.788721 279 37981ft 468kts
17-Oct-20 12:25 34.044530 -114.941968 279 37981ft 468kts
17-Oct-20 12:26 34.069552 -115.096446 279 37995ft 469kts
17-Oct-20 12:27 34.094046 -115.249640 279 37285ft 452kts
17-Oct-20 12:28 34.117282 -115.394053 279 35768ft 439kts
17-Oct-20 12:29 34.140770 -115.540534 279 34272ft 448kts
17-Oct-20 12:30 34.155507 -115.688765 271 32781ft 451kts
17-Oct-20 12:31 34.148524 -115.841748 263 30970ft 460kts
17-Oct-20 12:32 34.134170 -115.995784 263 29140ft 468kts
17-Oct-20 12:33 34.118774 -116.153399 263 27149ft 487kts
17-Oct-20 12:34 34.102958 -116.313621 262 25124ft 473kts
17-Oct-20 12:35 34.086601 -116.465807 262 23994ft 424kts
17-Oct-20 12:36 34.072253 -116.598948 263 23995ft 398kts
17-Oct-20 12:37 34.059770 -116.732746 263 21988ft 394kts
17-Oct-20 12:38 34.047933 -116.860179 263 19512ft 381kts
17-Oct-20 12:39 34.033187 -116.982566 261 17723ft 360kts
17-Oct-20 12:40 34.018884 -117.096277 262 16854ft 320kts
17-Oct-20 12:41 34.005427 -117.210447 262 15085ft 351kts
17-Oct-20 12:42 33.991639 -117.325330 262 13933ft 342kts
17-Oct-20 12:43 33.978525 -117.437075 263 12460ft 329kts
17-Oct-20 12:44 33.981452 -117.540452 283 11353ft 301kts
17-Oct-20 12:45 33.999151 -117.639052 283 10008ft 286kts
17-Oct-20 12:46 34.002866 -117.728761 263 9309ft 267kts
17-Oct-20 12:47 33.993784 -117.817027 264 8110ft 263kts
17-Oct-20 12:48 33.985367 -117.903627 264 7004ft 256kts
17-Oct-20 12:49 33.972250 -117.984110 255 6097ft 247kts
17-Oct-20 12:50 33.968654 -118.063524 266 5402ft 228kts
17-Oct-20 12:51 33.962000 -118.138461 263 4229ft 219kts
17-Oct-20 12:52 33.955004 -118.208527 263 2992ft 202kts
17-Oct-20 12:53 33.948699 -118.270959 263 1946ft 161kts
17-Oct-20 12:54 33.943592 -118.321456 263 1137ft 150kts
17-Oct-20 12:55 33.938624 -118.370357 263 356ft 142kts
17-Oct-20 12:56 33.935661 -118.401433 280 121ft 29kts
17-Oct-20 12:57 33.936039 -118.403116 296 122ft 0kts
17-Oct-20 12:58 33.936332 -118.404100 247 124ft 9kts
17-Oct-20 12:59 33.936950 -118.409006 353 128ft 14kts
17-Oct-20 13:00 33.937784 -118.408941 57 128ft 0kts
17-Oct-20 13:01 33.938888 -118.406687 80 125ft 15kts
17-Oct-20 13:02 33.940226 -118.404997 82 125ft 6kts

Navigation Log

Ident Type
Flight plan parsing failed, navigation log unavailable